sensor_id;sensor_type;location;lat;lon;timestamp;temperature;humidity
7234;DHT22;3658;47.992;10.158;2023-02-10T00:01:18;20.50;31.30
7234;DHT22;3658;47.992;10.158;2023-02-10T00:03:46;20.50;31.30
7234;DHT22;3658;47.992;10.158;2023-02-10T00:06:14;20.50;31.30
7234;DHT22;3658;47.992;10.158;2023-02-10T00:08:42;20.50;31.30
7234;DHT22;3658;47.992;10.158;2023-02-10T00:11:12;20.50;31.20
7234;DHT22;3658;47.992;10.158;2023-02-10T00:13:41;20.50;31.20
7234;DHT22;3658;47.992;10.158;2023-02-10T00:16:11;20.50;31.20
7234;DHT22;3658;47.992;10.158;2023-02-10T00:18:39;20.50;31.30
7234;DHT22;3658;47.992;10.158;2023-02-10T00:21:08;20.50;31.30
7234;DHT22;3658;47.992;10.158;2023-02-10T00:23:35;20.50;31.30
7234;DHT22;3658;47.992;10.158;2023-02-10T00:26:03;20.50;31.30
7234;DHT22;3658;47.992;10.158;2023-02-10T00:28:32;20.50;31.20
7234;DHT22;3658;47.992;10.158;2023-02-10T00:30:59;20.50;31.30
7234;DHT22;3658;47.992;10.158;2023-02-10T00:33:27;20.50;31.20
7234;DHT22;3658;47.992;10.158;2023-02-10T00:35:54;20.50;31.20
7234;DHT22;3658;47.992;10.158;2023-02-10T00:38:22;20.60;31.30
7234;DHT22;3658;47.992;10.158;2023-02-10T00:40:49;20.60;31.30
7234;DHT22;3658;47.992;10.158;2023-02-10T00:43:16;20.50;31.20
7234;DHT22;3658;47.992;10.158;2023-02-10T00:45:43;20.50;31.20
7234;DHT22;3658;47.992;10.158;2023-02-10T00:48:09;20.60;31.20
7234;DHT22;3658;47.992;10.158;2023-02-10T00:50:38;20.60;31.20
7234;DHT22;3658;47.992;10.158;2023-02-10T00:53:05;20.60;31.20
7234;DHT22;3658;47.992;10.158;2023-02-10T00:55:32;20.60;31.20
7234;DHT22;3658;47.992;10.158;2023-02-10T00:57:59;20.60;31.10
7234;DHT22;3658;47.992;10.158;2023-02-10T01:00:25;20.60;31.20
7234;DHT22;3658;47.992;10.158;2023-02-10T01:02:52;20.60;31.20
7234;DHT22;3658;47.992;10.158;2023-02-10T01:05:19;20.60;31.20
7234;DHT22;3658;47.992;10.158;2023-02-10T01:07:48;20.60;31.20
7234;DHT22;3658;47.992;10.158;2023-02-10T01:10:15;20.60;31.20
7234;DHT22;3658;47.992;10.158;2023-02-10T01:12:42;20.60;31.10
7234;DHT22;3658;47.992;10.158;2023-02-10T01:15:08;20.60;31.10
7234;DHT22;3658;47.992;10.158;2023-02-10T01:17:35;20.60;31.20
7234;DHT22;3658;47.992;10.158;2023-02-10T01:20:03;20.60;31.20
7234;DHT22;3658;47.992;10.158;2023-02-10T01:22:31;20.60;31.20
7234;DHT22;3658;47.992;10.158;2023-02-10T01:25:00;20.60;31.20
7234;DHT22;3658;47.992;10.158;2023-02-10T01:27:27;20.60;31.20
7234;DHT22;3658;47.992;10.158;2023-02-10T01:29:54;20.60;31.20
7234;DHT22;3658;47.992;10.158;2023-02-10T01:32:21;20.60;31.20
7234;DHT22;3658;47.992;10.158;2023-02-10T01:34:48;20.70;31.20
7234;DHT22;3658;47.992;10.158;2023-02-10T01:37:15;20.60;31.10
7234;DHT22;3658;47.992;10.158;2023-02-10T01:39:42;20.70;31.20
7234;DHT22;3658;47.992;10.158;2023-02-10T01:42:12;20.60;31.10
7234;DHT22;3658;47.992;10.158;2023-02-10T01:45:11;20.60;31.20
7234;DHT22;3658;47.992;10.158;2023-02-10T01:47:39;20.60;31.10
7234;DHT22;3658;47.992;10.158;2023-02-10T01:50:06;20.70;31.20
7234;DHT22;3658;47.992;10.158;2023-02-10T01:52:34;20.70;31.10
7234;DHT22;3658;47.992;10.158;2023-02-10T01:55:04;20.60;31.10
7234;DHT22;3658;47.992;10.158;2023-02-10T01:57:33;20.70;31.20
7234;DHT22;3658;47.992;10.158;2023-02-10T02:00:04;20.70;31.10
7234;DHT22;3658;47.992;10.158;2023-02-10T02:02:31;20.70;31.20
7234;DHT22;3658;47.992;10.158;2023-02-10T02:05:03;20.70;31.20
7234;DHT22;3658;47.992;10.158;2023-02-10T02:07:34;20.70;31.20
7234;DHT22;3658;47.992;10.158;2023-02-10T02:10:05;20.70;31.10
7234;DHT22;3658;47.992;10.158;2023-02-10T02:12:39;20.70;31.10
7234;DHT22;3658;47.992;10.158;2023-02-10T02:15:14;20.70;31.10
7234;DHT22;3658;47.992;10.158;2023-02-10T02:17:46;20.70;31.10
7234;DHT22;3658;47.992;10.158;2023-02-10T02:20:51;20.70;31.10
7234;DHT22;3658;47.992;10.158;2023-02-10T02:23:54;20.70;31.20
7234;DHT22;3658;47.992;10.158;2023-02-10T02:26:47;20.70;31.80
7234;DHT22;3658;47.992;10.158;2023-02-10T02:29:30;20.70;31.10
7234;DHT22;3658;47.992;10.158;2023-02-10T02:32:05;20.70;31.10
7234;DHT22;3658;47.992;10.158;2023-02-10T02:34:37;20.70;31.10
7234;DHT22;3658;47.992;10.158;2023-02-10T02:37:09;20.70;31.00
7234;DHT22;3658;47.992;10.158;2023-02-10T02:39:41;20.70;31.10
7234;DHT22;3658;47.992;10.158;2023-02-10T02:42:18;20.70;31.00
7234;DHT22;3658;47.992;10.158;2023-02-10T02:44:47;20.70;31.00
7234;DHT22;3658;47.992;10.158;2023-02-10T02:47:26;20.70;31.00
7234;DHT22;3658;47.992;10.158;2023-02-10T02:50:01;20.70;31.10
7234;DHT22;3658;47.992;10.158;2023-02-10T02:52:35;20.70;31.00
7234;DHT22;3658;47.992;10.158;2023-02-10T02:55:12;20.70;31.00
7234;DHT22;3658;47.992;10.158;2023-02-10T02:57:45;20.70;31.00
7234;DHT22;3658;47.992;10.158;2023-02-10T03:00:16;20.80;31.00
7234;DHT22;3658;47.992;10.158;2023-02-10T03:02:46;20.70;31.00
7234;DHT22;3658;47.992;10.158;2023-02-10T03:05:17;20.70;31.00
7234;DHT22;3658;47.992;10.158;2023-02-10T03:07:45;20.70;31.00
7234;DHT22;3658;47.992;10.158;2023-02-10T03:10:12;20.70;31.10
7234;DHT22;3658;47.992;10.158;2023-02-10T03:12:39;20.70;31.00
7234;DHT22;3658;47.992;10.158;2023-02-10T03:15:06;20.70;31.00
7234;DHT22;3658;47.992;10.158;2023-02-10T03:17:34;20.70;31.00
7234;DHT22;3658;47.992;10.158;2023-02-10T03:20:02;20.70;31.10
7234;DHT22;3658;47.992;10.158;2023-02-10T03:22:29;20.70;31.10
7234;DHT22;3658;47.992;10.158;2023-02-10T03:24:56;20.80;31.10
7234;DHT22;3658;47.992;10.158;2023-02-10T03:27:23;20.70;31.00
7234;DHT22;3658;47.992;10.158;2023-02-10T03:29:50;20.80;31.00
7234;DHT22;3658;47.992;10.158;2023-02-10T03:32:18;20.80;31.10
7234;DHT22;3658;47.992;10.158;2023-02-10T03:34:45;20.80;31.10
7234;DHT22;3658;47.992;10.158;2023-02-10T03:37:13;20.80;31.00
7234;DHT22;3658;47.992;10.158;2023-02-10T03:39:40;20.80;31.10
7234;DHT22;3658;47.992;10.158;2023-02-10T03:42:07;20.70;31.00
7234;DHT22;3658;47.992;10.158;2023-02-10T03:44:35;20.80;31.10
7234;DHT22;3658;47.992;10.158;2023-02-10T03:47:02;20.80;31.00
7234;DHT22;3658;47.992;10.158;2023-02-10T03:49:29;20.80;31.00
7234;DHT22;3658;47.992;10.158;2023-02-10T03:51:56;20.80;31.00
7234;DHT22;3658;47.992;10.158;2023-02-10T03:54:24;20.80;31.00
7234;DHT22;3658;47.992;10.158;2023-02-10T03:56:51;20.80;31.00
7234;DHT22;3658;47.992;10.158;2023-02-10T03:59:18;20.80;31.00
7234;DHT22;3658;47.992;10.158;2023-02-10T04:01:45;20.80;31.00
7234;DHT22;3658;47.992;10.158;2023-02-10T04:04:13;20.80;31.00
7234;DHT22;3658;47.992;10.158;2023-02-10T04:06:40;20.80;31.00
7234;DHT22;3658;47.992;10.158;2023-02-10T04:09:07;20.80;30.90
7234;DHT22;3658;47.992;10.158;2023-02-10T04:11:35;20.80;30.90
7234;DHT22;3658;47.992;10.158;2023-02-10T04:14:02;20.80;31.00
7234;DHT22;3658;47.992;10.158;2023-02-10T04:16:29;20.80;31.00
7234;DHT22;3658;47.992;10.158;2023-02-10T04:18:57;20.80;31.70
7234;DHT22;3658;47.992;10.158;2023-02-10T04:21:24;20.80;30.90
7234;DHT22;3658;47.992;10.158;2023-02-10T04:23:51;20.80;31.00
7234;DHT22;3658;47.992;10.158;2023-02-10T04:26:18;20.80;30.90
7234;DHT22;3658;47.992;10.158;2023-02-10T04:28:46;20.80;31.00
7234;DHT22;3658;47.992;10.158;2023-02-10T04:31:14;20.80;30.90
7234;DHT22;3658;47.992;10.158;2023-02-10T04:33:41;20.80;31.00
7234;DHT22;3658;47.992;10.158;2023-02-10T04:36:08;20.90;31.00
7234;DHT22;3658;47.992;10.158;2023-02-10T04:38:35;20.80;30.90
7234;DHT22;3658;47.992;10.158;2023-02-10T04:41:03;20.80;30.90
7234;DHT22;3658;47.992;10.158;2023-02-10T04:43:30;20.80;31.50
7234;DHT22;3658;47.992;10.158;2023-02-10T04:45:59;20.80;30.90
7234;DHT22;3658;47.992;10.158;2023-02-10T04:48:28;20.80;31.00
7234;DHT22;3658;47.992;10.158;2023-02-10T04:50:55;20.80;30.90
7234;DHT22;3658;47.992;10.158;2023-02-10T04:53:22;20.80;30.90
7234;DHT22;3658;47.992;10.158;2023-02-10T04:55:49;20.80;30.90
7234;DHT22;3658;47.992;10.158;2023-02-10T04:58:16;20.80;30.90
7234;DHT22;3658;47.992;10.158;2023-02-10T05:00:42;20.80;30.80
7234;DHT22;3658;47.992;10.158;2023-02-10T05:03:11;20.80;30.90
7234;DHT22;3658;47.992;10.158;2023-02-10T05:05:38;20.80;30.90
7234;DHT22;3658;47.992;10.158;2023-02-10T05:08:05;20.80;30.90
7234;DHT22;3658;47.992;10.158;2023-02-10T05:10:32;20.80;30.90
7234;DHT22;3658;47.992;10.158;2023-02-10T05:12:59;20.90;30.90
7234;DHT22;3658;47.992;10.158;2023-02-10T05:15:26;20.90;30.90
7234;DHT22;3658;47.992;10.158;2023-02-10T05:17:53;20.90;30.90
7234;DHT22;3658;47.992;10.158;2023-02-10T05:20:21;20.90;30.90
7234;DHT22;3658;47.992;10.158;2023-02-10T05:22:48;20.90;30.90
7234;DHT22;3658;47.992;10.158;2023-02-10T05:25:15;20.90;30.90
7234;DHT22;3658;47.992;10.158;2023-02-10T05:27:42;20.90;30.90
7234;DHT22;3658;47.992;10.158;2023-02-10T05:30:11;20.90;30.90
7234;DHT22;3658;47.992;10.158;2023-02-10T05:32:39;20.80;30.80
7234;DHT22;3658;47.992;10.158;2023-02-10T05:35:06;20.80;30.90
7234;DHT22;3658;47.992;10.158;2023-02-10T05:37:35;20.80;30.80
7234;DHT22;3658;47.992;10.158;2023-02-10T05:40:03;20.80;30.80
7234;DHT22;3658;47.992;10.158;2023-02-10T05:42:30;20.90;31.00
7234;DHT22;3658;47.992;10.158;2023-02-10T05:44:57;20.90;30.90
7234;DHT22;3658;47.992;10.158;2023-02-10T05:47:24;20.90;30.90
7234;DHT22;3658;47.992;10.158;2023-02-10T05:49:51;20.80;30.80
7234;DHT22;3658;47.992;10.158;2023-02-10T05:52:18;20.90;30.90
7234;DHT22;3658;47.992;10.158;2023-02-10T05:54:46;20.90;30.90
7234;DHT22;3658;47.992;10.158;2023-02-10T05:57:13;20.90;30.90
7234;DHT22;3658;47.992;10.158;2023-02-10T05:59:40;20.90;30.80
7234;DHT22;3658;47.992;10.158;2023-02-10T06:02:08;20.90;30.80
7234;DHT22;3658;47.992;10.158;2023-02-10T06:04:35;20.90;30.80
7234;DHT22;3658;47.992;10.158;2023-02-10T06:07:02;20.70;30.90
7234;DHT22;3658;47.992;10.158;2023-02-10T06:09:29;20.60;31.20
7234;DHT22;3658;47.992;10.158;2023-02-10T06:11:58;20.60;31.50
7234;DHT22;3658;47.992;10.158;2023-02-10T06:14:25;20.50;31.60
7234;DHT22;3658;47.992;10.158;2023-02-10T06:16:52;20.50;31.70
7234;DHT22;3658;47.992;10.158;2023-02-10T06:19:19;20.50;31.80
7234;DHT22;3658;47.992;10.158;2023-02-10T06:21:46;20.50;31.80
7234;DHT22;3658;47.992;10.158;2023-02-10T06:24:13;20.40;31.80
7234;DHT22;3658;47.992;10.158;2023-02-10T06:26:40;20.40;31.90
7234;DHT22;3658;47.992;10.158;2023-02-10T06:29:09;20.40;31.90
7234;DHT22;3658;47.992;10.158;2023-02-10T06:31:35;20.40;32.00
7234;DHT22;3658;47.992;10.158;2023-02-10T06:34:03;20.40;32.00
7234;DHT22;3658;47.992;10.158;2023-02-10T06:36:31;20.40;32.00
7234;DHT22;3658;47.992;10.158;2023-02-10T06:38:58;20.40;32.10
7234;DHT22;3658;47.992;10.158;2023-02-10T06:41:25;20.40;32.10
7234;DHT22;3658;47.992;10.158;2023-02-10T06:43:52;20.30;32.00
7234;DHT22;3658;47.992;10.158;2023-02-10T06:46:20;20.30;32.00
7234;DHT22;3658;47.992;10.158;2023-02-10T06:48:47;20.30;32.10
7234;DHT22;3658;47.992;10.158;2023-02-10T06:51:14;20.30;32.00
7234;DHT22;3658;47.992;10.158;2023-02-10T06:53:41;20.30;32.10
7234;DHT22;3658;47.992;10.158;2023-02-10T06:56:09;20.40;32.10
7234;DHT22;3658;47.992;10.158;2023-02-10T06:58:36;20.40;31.90
7234;DHT22;3658;47.992;10.158;2023-02-10T07:01:07;20.40;31.90
7234;DHT22;3658;47.992;10.158;2023-02-10T07:03:35;20.50;32.00
7234;DHT22;3658;47.992;10.158;2023-02-10T07:06:03;20.50;32.30
7234;DHT22;3658;47.992;10.158;2023-02-10T07:08:30;20.50;32.50
7234;DHT22;3658;47.992;10.158;2023-02-10T07:10:57;20.60;32.50
7234;DHT22;3658;47.992;10.158;2023-02-10T07:13:24;20.60;32.40
7234;DHT22;3658;47.992;10.158;2023-02-10T07:15:51;20.70;32.40
7234;DHT22;3658;47.992;10.158;2023-02-10T07:18:18;20.70;32.40
7234;DHT22;3658;47.992;10.158;2023-02-10T07:20:47;20.70;32.40
7234;DHT22;3658;47.992;10.158;2023-02-10T07:23:14;20.70;32.40
7234;DHT22;3658;47.992;10.158;2023-02-10T07:25:41;20.70;32.40
7234;DHT22;3658;47.992;10.158;2023-02-10T07:28:08;20.70;32.40
7234;DHT22;3658;47.992;10.158;2023-02-10T07:30:35;20.70;32.30
7234;DHT22;3658;47.992;10.158;2023-02-10T07:33:02;20.70;32.70
7234;DHT22;3658;47.992;10.158;2023-02-10T07:35:29;20.70;32.60
7234;DHT22;3658;47.992;10.158;2023-02-10T07:37:57;20.70;32.50
7234;DHT22;3658;47.992;10.158;2023-02-10T07:40:24;20.80;32.50
7234;DHT22;3658;47.992;10.158;2023-02-10T07:42:54;20.80;32.50
7234;DHT22;3658;47.992;10.158;2023-02-10T07:45:21;20.80;32.40
7234;DHT22;3658;47.992;10.158;2023-02-10T07:47:48;20.80;32.20
7234;DHT22;3658;47.992;10.158;2023-02-10T07:50:15;20.80;32.00
7234;DHT22;3658;47.992;10.158;2023-02-10T07:52:42;20.80;32.00
7234;DHT22;3658;47.992;10.158;2023-02-10T07:55:11;20.80;32.10
7234;DHT22;3658;47.992;10.158;2023-02-10T07:57:38;20.80;32.10
7234;DHT22;3658;47.992;10.158;2023-02-10T08:00:06;20.80;32.10
7234;DHT22;3658;47.992;10.158;2023-02-10T08:02:34;20.80;32.00
7234;DHT22;3658;47.992;10.158;2023-02-10T08:05:01;20.70;32.00
7234;DHT22;3658;47.992;10.158;2023-02-10T08:07:28;20.60;31.60
7234;DHT22;3658;47.992;10.158;2023-02-10T08:09:55;20.50;31.70
7234;DHT22;3658;47.992;10.158;2023-02-10T08:14:59;20.50;32.20
7234;DHT22;3658;47.992;10.158;2023-02-10T08:17:27;20.50;32.30
7234;DHT22;3658;47.992;10.158;2023-02-10T08:19:54;20.50;32.20
7234;DHT22;3658;47.992;10.158;2023-02-10T08:22:21;20.50;32.20
7234;DHT22;3658;47.992;10.158;2023-02-10T08:24:48;20.50;32.30
7234;DHT22;3658;47.992;10.158;2023-02-10T08:27:15;20.50;32.20
7234;DHT22;3658;47.992;10.158;2023-02-10T08:29:42;20.50;32.00
7234;DHT22;3658;47.992;10.158;2023-02-10T08:32:11;20.50;32.00
7234;DHT22;3658;47.992;10.158;2023-02-10T08:34:38;20.50;32.10
7234;DHT22;3658;47.992;10.158;2023-02-10T08:37:05;20.40;32.50
7234;DHT22;3658;47.992;10.158;2023-02-10T08:39:32;20.40;31.90
7234;DHT22;3658;47.992;10.158;2023-02-10T08:41:59;20.40;32.00
7234;DHT22;3658;47.992;10.158;2023-02-10T08:44:26;20.40;32.00
7234;DHT22;3658;47.992;10.158;2023-02-10T08:46:53;20.40;32.20
7234;DHT22;3658;47.992;10.158;2023-02-10T08:49:21;20.40;32.10
7234;DHT22;3658;47.992;10.158;2023-02-10T08:51:50;20.40;32.10
7234;DHT22;3658;47.992;10.158;2023-02-10T08:54:18;20.40;32.30
7234;DHT22;3658;47.992;10.158;2023-02-10T08:56:45;20.40;32.00
7234;DHT22;3658;47.992;10.158;2023-02-10T08:59:12;20.40;32.00
7234;DHT22;3658;47.992;10.158;2023-02-10T09:01:39;20.40;31.80
7234;DHT22;3658;47.992;10.158;2023-02-10T09:04:06;20.40;31.90
7234;DHT22;3658;47.992;10.158;2023-02-10T09:06:37;20.40;32.00
7234;DHT22;3658;47.992;10.158;2023-02-10T09:09:06;20.40;31.80
7234;DHT22;3658;47.992;10.158;2023-02-10T09:11:33;20.40;31.80
7234;DHT22;3658;47.992;10.158;2023-02-10T09:14:00;20.40;31.80
7234;DHT22;3658;47.992;10.158;2023-02-10T09:16:27;20.40;31.80
7234;DHT22;3658;47.992;10.158;2023-02-10T09:18:54;20.40;31.80
7234;DHT22;3658;47.992;10.158;2023-02-10T09:21:22;20.40;31.80
7234;DHT22;3658;47.992;10.158;2023-02-10T09:23:51;20.40;31.80
7234;DHT22;3658;47.992;10.158;2023-02-10T09:26:18;20.40;31.70
7234;DHT22;3658;47.992;10.158;2023-02-10T09:28:45;20.30;31.60
7234;DHT22;3658;47.992;10.158;2023-02-10T09:31:13;20.30;31.60
7234;DHT22;3658;47.992;10.158;2023-02-10T09:33:41;20.30;31.70
7234;DHT22;3658;47.992;10.158;2023-02-10T09:36:13;20.30;31.70
7234;DHT22;3658;47.992;10.158;2023-02-10T09:38:40;20.20;31.70
7234;DHT22;3658;47.992;10.158;2023-02-10T09:41:18;20.30;31.90
7234;DHT22;3658;47.992;10.158;2023-02-10T09:44:04;20.30;32.00
7234;DHT22;3658;47.992;10.158;2023-02-10T09:46:44;20.30;31.90
7234;DHT22;3658;47.992;10.158;2023-02-10T09:49:27;20.40;32.00
7234;DHT22;3658;47.992;10.158;2023-02-10T09:52:05;20.40;32.00
7234;DHT22;3658;47.992;10.158;2023-02-10T09:54:35;20.40;31.90
7234;DHT22;3658;47.992;10.158;2023-02-10T09:57:11;20.40;32.00
7234;DHT22;3658;47.992;10.158;2023-02-10T09:59:39;20.40;32.00
7234;DHT22;3658;47.992;10.158;2023-02-10T10:02:13;20.40;32.20
7234;DHT22;3658;47.992;10.158;2023-02-10T10:04:43;20.40;32.20
7234;DHT22;3658;47.992;10.158;2023-02-10T10:07:16;20.40;32.20
7234;DHT22;3658;47.992;10.158;2023-02-10T10:09:48;20.40;32.10
7234;DHT22;3658;47.992;10.158;2023-02-10T10:12:19;20.40;32.00
7234;DHT22;3658;47.992;10.158;2023-02-10T10:14:47;20.40;31.80
7234;DHT22;3658;47.992;10.158;2023-02-10T10:17:39;20.40;31.80
7234;DHT22;3658;47.992;10.158;2023-02-10T10:20:30;20.40;31.90
7234;DHT22;3658;47.992;10.158;2023-02-10T10:23:18;20.40;31.80
7234;DHT22;3658;47.992;10.158;2023-02-10T10:28:59;20.30;31.70
7234;DHT22;3658;47.992;10.158;2023-02-10T10:31:30;20.40;31.80
7234;DHT22;3658;47.992;10.158;2023-02-10T10:34:00;20.40;31.80
7234;DHT22;3658;47.992;10.158;2023-02-10T10:36:32;20.40;31.80
7234;DHT22;3658;47.992;10.158;2023-02-10T10:39:06;20.40;31.80
7234;DHT22;3658;47.992;10.158;2023-02-10T10:41:37;20.40;31.80
7234;DHT22;3658;47.992;10.158;2023-02-10T10:44:07;20.40;32.00
7234;DHT22;3658;47.992;10.158;2023-02-10T10:46:40;20.40;32.00
7234;DHT22;3658;47.992;10.158;2023-02-10T10:49:09;20.40;32.00
7234;DHT22;3658;47.992;10.158;2023-02-10T10:51:36;20.30;31.70
7234;DHT22;3658;47.992;10.158;2023-02-10T10:54:05;20.30;31.00
7234;DHT22;3658;47.992;10.158;2023-02-10T10:56:37;20.20;30.00
7234;DHT22;3658;47.992;10.158;2023-02-10T10:59:13;20.20;28.90
7234;DHT22;3658;47.992;10.158;2023-02-10T11:01:43;20.20;28.10
7234;DHT22;3658;47.992;10.158;2023-02-10T11:04:13;20.10;27.40
7234;DHT22;3658;47.992;10.158;2023-02-10T11:06:43;20.00;27.70
7234;DHT22;3658;47.992;10.158;2023-02-10T11:09:21;20.00;27.60
7234;DHT22;3658;47.992;10.158;2023-02-10T11:11:49;20.00;27.70
7234;DHT22;3658;47.992;10.158;2023-02-10T11:14:21;20.00;27.90
7234;DHT22;3658;47.992;10.158;2023-02-10T11:16:52;20.00;28.20
7234;DHT22;3658;47.992;10.158;2023-02-10T11:19:22;20.00;28.40
7234;DHT22;3658;47.992;10.158;2023-02-10T11:21:50;20.00;28.60
7234;DHT22;3658;47.992;10.158;2023-02-10T11:24:20;20.00;28.70
7234;DHT22;3658;47.992;10.158;2023-02-10T11:26:59;20.00;29.10
7234;DHT22;3658;47.992;10.158;2023-02-10T11:29:30;20.10;29.00
7234;DHT22;3658;47.992;10.158;2023-02-10T11:31:58;20.10;29.10
7234;DHT22;3658;47.992;10.158;2023-02-10T11:34:29;20.20;29.30
7234;DHT22;3658;47.992;10.158;2023-02-10T11:36:58;20.20;29.40
7234;DHT22;3658;47.992;10.158;2023-02-10T11:39:28;20.10;29.30
7234;DHT22;3658;47.992;10.158;2023-02-10T11:41:56;20.10;29.40
7234;DHT22;3658;47.992;10.158;2023-02-10T11:44:28;20.20;29.70
7234;DHT22;3658;47.992;10.158;2023-02-10T11:46:58;20.20;29.70
7234;DHT22;3658;47.992;10.158;2023-02-10T11:49:25;20.20;29.60
7234;DHT22;3658;47.992;10.158;2023-02-10T11:51:57;20.10;29.40
7234;DHT22;3658;47.992;10.158;2023-02-10T11:54:25;20.10;29.40
7234;DHT22;3658;47.992;10.158;2023-02-10T11:57:01;20.10;29.60
7234;DHT22;3658;47.992;10.158;2023-02-10T11:59:57;20.20;30.10
7234;DHT22;3658;47.992;10.158;2023-02-10T12:02:38;20.20;30.50
7234;DHT22;3658;47.992;10.158;2023-02-10T12:05:15;20.20;30.70
7234;DHT22;3658;47.992;10.158;2023-02-10T12:07:54;20.20;30.80
7234;DHT22;3658;47.992;10.158;2023-02-10T12:10:28;20.20;30.80
7234;DHT22;3658;47.992;10.158;2023-02-10T12:13:01;20.30;31.50
7234;DHT22;3658;47.992;10.158;2023-02-10T12:15:40;20.30;31.60
7234;DHT22;3658;47.992;10.158;2023-02-10T12:18:22;20.30;31.50
7234;DHT22;3658;47.992;10.158;2023-02-10T12:21:01;20.20;31.40
7234;DHT22;3658;47.992;10.158;2023-02-10T12:23:50;20.20;31.10
7234;DHT22;3658;47.992;10.158;2023-02-10T12:26:27;20.20;31.00
7234;DHT22;3658;47.992;10.158;2023-02-10T12:29:06;20.10;31.10
7234;DHT22;3658;47.992;10.158;2023-02-10T12:31:46;20.10;31.10
7234;DHT22;3658;47.992;10.158;2023-02-10T12:34:27;20.10;31.10
7234;DHT22;3658;47.992;10.158;2023-02-10T12:37:06;20.10;31.10
7234;DHT22;3658;47.992;10.158;2023-02-10T12:39:42;20.10;31.20
7234;DHT22;3658;47.992;10.158;2023-02-10T12:42:28;20.10;31.30
7234;DHT22;3658;47.992;10.158;2023-02-10T12:45:06;20.10;31.50
7234;DHT22;3658;47.992;10.158;2023-02-10T12:47:48;20.10;31.40
7234;DHT22;3658;47.992;10.158;2023-02-10T12:50:47;20.10;31.30
7234;DHT22;3658;47.992;10.158;2023-02-10T12:53:25;20.00;31.10
7234;DHT22;3658;47.992;10.158;2023-02-10T12:55:55;20.00;32.00
7234;DHT22;3658;47.992;10.158;2023-02-10T12:58:28;20.00;31.60
7234;DHT22;3658;47.992;10.158;2023-02-10T13:01:08;20.00;31.70
7234;DHT22;3658;47.992;10.158;2023-02-10T13:03:39;20.10;31.60
7234;DHT22;3658;47.992;10.158;2023-02-10T13:06:25;20.10;31.60
7234;DHT22;3658;47.992;10.158;2023-02-10T13:09:19;20.10;31.60
7234;DHT22;3658;47.992;10.158;2023-02-10T13:11:59;20.20;31.60
7234;DHT22;3658;47.992;10.158;2023-02-10T13:14:29;20.20;31.50
7234;DHT22;3658;47.992;10.158;2023-02-10T13:16:58;20.20;31.50
7234;DHT22;3658;47.992;10.158;2023-02-10T13:19:36;20.20;31.50
7234;DHT22;3658;47.992;10.158;2023-02-10T13:22:09;20.20;31.60
7234;DHT22;3658;47.992;10.158;2023-02-10T13:24:42;20.20;31.50
7234;DHT22;3658;47.992;10.158;2023-02-10T13:27:31;20.20;31.60
7234;DHT22;3658;47.992;10.158;2023-02-10T13:30:13;20.20;31.50
7234;DHT22;3658;47.992;10.158;2023-02-10T13:32:51;20.20;31.60
7234;DHT22;3658;47.992;10.158;2023-02-10T13:35:23;20.20;31.70
7234;DHT22;3658;47.992;10.158;2023-02-10T13:37:52;20.20;31.70
7234;DHT22;3658;47.992;10.158;2023-02-10T13:40:21;20.20;31.60
7234;DHT22;3658;47.992;10.158;2023-02-10T13:42:51;20.20;31.70
7234;DHT22;3658;47.992;10.158;2023-02-10T13:45:21;20.20;31.70
7234;DHT22;3658;47.992;10.158;2023-02-10T13:47:51;20.20;31.80
7234;DHT22;3658;47.992;10.158;2023-02-10T13:50:24;20.20;31.60
7234;DHT22;3658;47.992;10.158;2023-02-10T13:52:55;20.30;31.40
7234;DHT22;3658;47.992;10.158;2023-02-10T13:55:39;20.40;31.30
7234;DHT22;3658;47.992;10.158;2023-02-10T13:58:29;20.50;31.20
7234;DHT22;3658;47.992;10.158;2023-02-10T14:00:57;20.50;31.00
7234;DHT22;3658;47.992;10.158;2023-02-10T14:03:25;20.50;30.90
7234;DHT22;3658;47.992;10.158;2023-02-10T14:05:56;20.50;30.90
7234;DHT22;3658;47.992;10.158;2023-02-10T14:08:32;20.60;30.90
7234;DHT22;3658;47.992;10.158;2023-02-10T14:11:05;20.60;30.90
7234;DHT22;3658;47.992;10.158;2023-02-10T14:13:33;20.50;30.70
7234;DHT22;3658;47.992;10.158;2023-02-10T14:16:04;20.60;30.90
7234;DHT22;3658;47.992;10.158;2023-02-10T14:18:33;20.60;30.90
7234;DHT22;3658;47.992;10.158;2023-02-10T14:21:04;20.60;30.80
7234;DHT22;3658;47.992;10.158;2023-02-10T14:23:34;20.60;30.70
7234;DHT22;3658;47.992;10.158;2023-02-10T14:26:03;20.60;30.70
7234;DHT22;3658;47.992;10.158;2023-02-10T14:28:33;20.60;30.80
7234;DHT22;3658;47.992;10.158;2023-02-10T14:31:04;20.60;30.70
7234;DHT22;3658;47.992;10.158;2023-02-10T14:33:33;20.60;30.70
7234;DHT22;3658;47.992;10.158;2023-02-10T14:36:06;20.60;30.70
7234;DHT22;3658;47.992;10.158;2023-02-10T14:38:34;20.60;30.70
7234;DHT22;3658;47.992;10.158;2023-02-10T14:41:02;20.60;30.70
7234;DHT22;3658;47.992;10.158;2023-02-10T14:43:31;20.60;30.70
7234;DHT22;3658;47.992;10.158;2023-02-10T14:46:00;20.60;30.70
7234;DHT22;3658;47.992;10.158;2023-02-10T14:48:29;20.80;30.80
7234;DHT22;3658;47.992;10.158;2023-02-10T14:51:06;20.70;30.70
7234;DHT22;3658;47.992;10.158;2023-02-10T14:53:36;20.70;30.60
7234;DHT22;3658;47.992;10.158;2023-02-10T14:56:14;20.70;30.60
7234;DHT22;3658;47.992;10.158;2023-02-10T14:58:43;20.70;30.60
7234;DHT22;3658;47.992;10.158;2023-02-10T15:01:16;20.70;30.60
7234;DHT22;3658;47.992;10.158;2023-02-10T15:03:46;20.70;30.60
7234;DHT22;3658;47.992;10.158;2023-02-10T15:06:16;20.70;30.60
7234;DHT22;3658;47.992;10.158;2023-02-10T15:08:47;20.70;30.50
7234;DHT22;3658;47.992;10.158;2023-02-10T15:11:18;20.70;30.60
7234;DHT22;3658;47.992;10.158;2023-02-10T15:14:12;20.70;30.60
7234;DHT22;3658;47.992;10.158;2023-02-10T15:16:41;20.70;30.50
7234;DHT22;3658;47.992;10.158;2023-02-10T15:19:13;20.70;30.60
7234;DHT22;3658;47.992;10.158;2023-02-10T15:21:43;20.70;30.50
7234;DHT22;3658;47.992;10.158;2023-02-10T15:24:26;20.70;30.60
7234;DHT22;3658;47.992;10.158;2023-02-10T15:26:53;20.70;30.60
7234;DHT22;3658;47.992;10.158;2023-02-10T15:29:21;20.70;30.50
7234;DHT22;3658;47.992;10.158;2023-02-10T15:31:53;20.70;30.60
7234;DHT22;3658;47.992;10.158;2023-02-10T15:34:43;20.70;30.50
7234;DHT22;3658;47.992;10.158;2023-02-10T15:37:19;20.70;30.50
7234;DHT22;3658;47.992;10.158;2023-02-10T15:39:55;20.70;30.50
7234;DHT22;3658;47.992;10.158;2023-02-10T15:42:27;20.70;30.50
7234;DHT22;3658;47.992;10.158;2023-02-10T15:45:02;20.70;30.50
7234;DHT22;3658;47.992;10.158;2023-02-10T15:47:48;20.70;30.60
7234;DHT22;3658;47.992;10.158;2023-02-10T15:50:19;20.70;30.50
7234;DHT22;3658;47.992;10.158;2023-02-10T15:52:48;20.70;30.50
7234;DHT22;3658;47.992;10.158;2023-02-10T15:55:18;20.70;30.50
7234;DHT22;3658;47.992;10.158;2023-02-10T15:57:46;20.70;30.50
7234;DHT22;3658;47.992;10.158;2023-02-10T16:00:20;20.70;30.50
7234;DHT22;3658;47.992;10.158;2023-02-10T16:02:48;20.70;30.50
7234;DHT22;3658;47.992;10.158;2023-02-10T16:05:15;20.70;30.50
7234;DHT22;3658;47.992;10.158;2023-02-10T16:07:42;20.70;30.50
7234;DHT22;3658;47.992;10.158;2023-02-10T16:10:14;20.80;30.60
7234;DHT22;3658;47.992;10.158;2023-02-10T16:12:41;20.80;30.50